59.0°F
Current conditions from King Hill
Updated every 5 minutes
 
  Saturday August 23, 2014

Station Historical Data
Daily Summary for March 30, 2012 Units:  Metric    English   Both
« Previous Day
Next Day »
Daily Weekly Monthly Yearly Custom
  High: Low: Average:
Temperature: 4.4 °C -4.9 °C -0.7 °C
Dew Point: -4.6 °C -10.2 °C -7.8 °C
Humidity: 72% 39% 59%
Wind Speed: 16.1km/h 1.6km/h 7.2km/h
Wind Gust: 35.4km/h - -
Wind- - WNW
Pressure: 1018.8 hPa 1013.8 hPa -
Precipitation: 0.5 mm    
Historical Graphs
 
 
Tabular Data for March 30, 2012
Time Temperature Dew Point Pressure Wind Wind Speed Wind Gust Humidity Daily Rainfall
00:04 0.1 °C -4.6 °C 1013.8 hPa NW 4.8 km/h 17.7 km/h 71% 0 mm
00:09 0 °C -4.6 °C 1014.1 hPa NNW 8 km/h 17.7 km/h 71% 0 mm
00:14 -0.1 °C -4.9 °C 1014.1 hPa NNW 11.3 km/h 24.1 km/h 70% 0 mm
00:19 -0.1 °C -5.1 °C 1014.1 hPa NW 8 km/h 24.1 km/h 69% 0 mm
00:24 -0.1 °C -4.9 °C 1014.1 hPa NW 3.2 km/h 20.9 km/h 70% 0 mm
00:29 -0.2 °C -5.2 °C 1014.1 hPa NW 3.2 km/h 19.3 km/h 69% 0 mm
00:34 -0.2 °C -5.1 °C 1014.1 hPa NW 4.8 km/h 19.3 km/h 70% 0 mm
00:40 -0.3 °C -5.1 °C 1014.1 hPa NW 3.2 km/h 12.9 km/h 70% 0 mm
00:49 -0.3 °C -5.1 °C 1014.1 hPa NNW 6.4 km/h 20.9 km/h 70% 0 mm
00:54 -0.3 °C -5.1 °C 1014.1 hPa North 4.8 km/h 19.3 km/h 70% 0 mm
00:59 -0.4 °C -5.2 °C 1014.1 hPa NNW 8 km/h 20.9 km/h 70% 0 mm
01:04 -0.4 °C -5.2 °C 1014.1 hPa North 6.4 km/h 20.9 km/h 70% 0 mm
01:09 -0.5 °C -5.3 °C 1014.1 hPa NW 6.4 km/h 17.7 km/h 70% 0 mm
01:14 -0.5 °C -5.3 °C 1014.1 hPa NW 11.3 km/h 17.7 km/h 70% 0 mm
01:19 -0.6 °C -5.6 °C 1014.1 hPa NW 9.7 km/h 27.4 km/h 69% 0 mm
01:24 -0.6 °C -5.1 °C 1014.1 hPa NNW 14.5 km/h 29 km/h 72% 0 mm
01:29 -0.7 °C -6.2 °C 1014.1 hPa NW 6.4 km/h 29 km/h 66% 0 mm
01:34 -0.7 °C -6.5 °C 1014.1 hPa NW 14.5 km/h 29 km/h 65% 0 mm
01:39 -0.7 °C -6.5 °C 1014.1 hPa NNW 9.7 km/h 25.7 km/h 65% 0 mm
01:44 -0.8 °C -6.6 °C 1014.1 hPa NW 4.8 km/h 25.7 km/h 65% 0 mm
01:49 -0.8 °C -6.8 °C 1014.1 hPa NW 11.3 km/h 19.3 km/h 64% 0 mm
01:54 -0.8 °C -6.8 °C 1014.1 hPa NW 9.7 km/h 19.3 km/h 64% 0 mm
01:59 -0.9 °C -6.7 °C 1014.4 hPa NW 16.1 km/h 32.2 km/h 65% 0 mm
02:04 -1.1 °C -6.4 °C 1014.1 hPa NW 12.9 km/h 32.2 km/h 67% 0 mm
02:09 -1.2 °C -6.3 °C 1014.4 hPa NNW 4.8 km/h 32.2 km/h 68% 0 mm
02:14 -1.3 °C -6.2 °C 1014.4 hPa NW 12.9 km/h 24.1 km/h 69% 0 mm
02:19 -1.4 °C -6.2 °C 1014.4 hPa NW 12.9 km/h 24.1 km/h 70% 0 mm
02:24 -1.5 °C -6.3 °C 1014.4 hPa NW 8 km/h 25.7 km/h 70% 0 mm
02:29 -1.6 °C -6.2 °C 1014.4 hPa NW 9.7 km/h 29 km/h 71% 0 mm
02:34 -1.7 °C -6.3 °C 1014.1 hPa NW 9.7 km/h 29 km/h 71% 0 mm
02:39 -1.7 °C -7.1 °C 1014.1 hPa NW 11.3 km/h 25.7 km/h 67% 0 mm
02:44 -1.7 °C -6.8 °C 1014.1 hPa NW 14.5 km/h 29 km/h 68% 0 mm
02:49 -1.7 °C -6.8 °C 1014.1 hPa NW 11.3 km/h 29 km/h 68% 0 mm
02:55 -1.6 °C -6.9 °C 1014.1 hPa NNW 8 km/h 24.1 km/h 67% 0 mm
03:00 -1.6 °C -6.9 °C 1014.1 hPa NW 8 km/h 24.1 km/h 67% 0 mm
03:09 -1.6 °C -7.1 °C 1014.1 hPa NNW 8 km/h 16.1 km/h 66% 0 mm
03:14 -1.6 °C -7.1 °C 1014.1 hPa NW 8 km/h 14.5 km/h 66% 0 mm
03:19 -1.7 °C -7.6 °C 1014.1 hPa NW 12.9 km/h 20.9 km/h 64% 0 mm
03:24 -1.6 °C -7.3 °C 1014.4 hPa NW 11.3 km/h 20.9 km/h 65% 0 mm
03:29 -1.7 °C -7.2 °C 1014.4 hPa NW 6.4 km/h 19.3 km/h 66% 0 mm
03:34 -1.7 °C -7.4 °C 1014.1 hPa NW 1.6 km/h 16.1 km/h 65% 0 mm
03:39 -1.7 °C -7.2 °C 1014.4 hPa NW 3.2 km/h 14.5 km/h 66% 0 mm
03:44 -1.8 °C -7.3 °C 1014.4 hPa NNW 8 km/h 20.9 km/h 66% 0 mm
03:49 -1.8 °C -7.5 °C 1014.4 hPa NNW 8 km/h 20.9 km/h 65% 0 mm
03:54 -1.9 °C -8 °C 1014.4 hPa NNW 11.3 km/h 20.9 km/h 63% 0 mm
03:59 -2.1 °C -8.6 °C 1014.4 hPa NW 14.5 km/h 30.6 km/h 61% 0 mm
04:04 -2.2 °C -8.7 °C 1014.4 hPa NW 11.3 km/h 30.6 km/h 61% 0 mm
04:09 -2.3 °C -8.8 °C 1014.8 hPa NNW 8 km/h 29 km/h 61% 0 mm
04:14 -2.4 °C -8.9 °C 1014.8 hPa NW 6.4 km/h 22.5 km/h 61% 0 mm
04:19 -2.5 °C -8.8 °C 1014.8 hPa NW 6.4 km/h 22.5 km/h 62% 0 mm
04:24 -2.7 °C -8.7 °C 1014.8 hPa NNW 8 km/h 20.9 km/h 63% 0 mm
04:29 -2.8 °C -8.7 °C 1014.8 hPa NW 3.2 km/h 19.3 km/h 64% 0 mm
04:34 -2.9 °C -8.8 °C 1014.8 hPa NNW 8 km/h 24.1 km/h 64% 0 mm
04:39 -3 °C -9.1 °C 1014.8 hPa NW 14.5 km/h 27.4 km/h 63% 0 mm
04:44 -2.9 °C -9 °C 1014.8 hPa NW 11.3 km/h 27.4 km/h 63% 0 mm
04:49 -2.9 °C -8.9 °C 1014.8 hPa NW 9.7 km/h 25.7 km/h 63% 0 mm
04:59 -3.1 °C -9.3 °C 1015.1 hPa NW 16.1 km/h 29 km/h 62% 0 mm
05:04 -3.2 °C -9.2 °C 1015.1 hPa NW 11.3 km/h 29 km/h 63% 0 mm
05:09 -3.3 °C -9.3 °C 1015.1 hPa NW 8 km/h 24.1 km/h 63% 0 mm
05:14 -3.4 °C -9.2 °C 1015.1 hPa NNW 4.8 km/h 25.7 km/h 64% 0 mm
05:19 -3.6 °C -9.4 °C 1015.5 hPa NNW 4.8 km/h 25.7 km/h 64% 0 mm
05:24 -3.7 °C -9.6 °C 1015.5 hPa NNW 9.7 km/h 22.5 km/h 64% 0 mm
05:29 -3.7 °C -9.5 °C 1015.1 hPa NW 8 km/h 24.1 km/h 64% 0 mm
05:34 -3.8 °C -9.6 °C 1015.1 hPa NNW 4.8 km/h 24.1 km/h 64% 0 mm
05:39 -3.9 °C -9.5 °C 1015.1 hPa NNW 4.8 km/h 14.5 km/h 65% 0 mm
05:44 -4 °C -9.6 °C 1015.1 hPa NW 3.2 km/h 17.7 km/h 65% 0 mm
05:49 -4.2 °C -9.8 °C 1015.5 hPa NW 9.7 km/h 19.3 km/h 65% 0 mm
05:54 -4.2 °C -9.8 °C 1015.5 hPa NW 4.8 km/h 19.3 km/h 65% 0 mm
05:59 -4.2 °C -9.8 °C 1015.5 hPa NW 6.4 km/h 14.5 km/h 65% 0 mm
06:04 -4.3 °C -9.9 °C 1015.5 hPa NNW 6.4 km/h 17.7 km/h 65% 0 mm
06:09 -4.3 °C -9.9 °C 1015.5 hPa NNW 8 km/h 17.7 km/h 65% 0 mm
06:14 -4.3 °C -9.9 °C 1015.5 hPa NNW 9.7 km/h 22.5 km/h 65% 0 mm
06:19 -4.3 °C -9.9 °C 1015.5 hPa NNW 6.4 km/h 22.5 km/h 65% 0 mm
06:24 -4.4 °C -10 °C 1015.5 hPa NW 6.4 km/h 22.5 km/h 65% 0 mm
06:29 -4.5 °C -10.1 °C 1015.8 hPa NNW 3.2 km/h 22.5 km/h 65% 0 mm
06:39 -4.6 °C -9.9 °C 1015.8 hPa NW 4.8 km/h 16.1 km/h 66% 0 mm
06:44 -4.5 °C -9.9 °C 1015.8 hPa NW 8 km/h 16.1 km/h 66% 0 mm
06:49 -4.5 °C -9.7 °C 1015.8 hPa NW 6.4 km/h 17.7 km/h 67% 0 mm
06:54 -4.5 °C -9.9 °C 1015.8 hPa NNW 6.4 km/h 17.7 km/h 66% 0 mm
06:59 -4.6 °C -9.9 °C 1015.8 hPa Calm   17.7 km/h 66% 0 mm
07:04 -4.7 °C -9.8 °C 1016.1 hPa Calm   14.5 km/h 67% 0 mm
07:09 -4.9 °C -9.9 °C 1016.1 hPa Calm   1.6 km/h 68% 0 mm
07:14 -4.9 °C -9.8 °C 1016.1 hPa NNW 1.6 km/h 14.5 km/h 69% 0 mm
07:19 -4.8 °C -9.7 °C 1016.5 hPa NW 3.2 km/h 14.5 km/h 69% 0 mm
07:24 -4.8 °C -9.7 °C 1016.5 hPa NW 1.6 km/h 14.5 km/h 69% 0 mm
07:29 -4.8 °C -9.7 °C 1016.5 hPa NNW 1.6 km/h 9.7 km/h 69% 0 mm
07:34 -4.7 °C -10.1 °C 1016.8 hPa NNW 6.4 km/h 12.9 km/h 66% 0 mm
07:39 -4.6 °C -9.9 °C 1017.2 hPa NNW 8 km/h 19.3 km/h 66% 0 mm
07:45 -4.5 °C -9.9 °C 1017.2 hPa NNW 4.8 km/h 19.3 km/h 66% 0 mm
07:54 -4.4 °C -10.2 °C 1017.5 hPa NW 11.3 km/h 20.9 km/h 64% 0 mm
07:59 -4.3 °C -10.1 °C 1017.5 hPa NW 9.7 km/h 19.3 km/h 64% 0 mm
08:04 -4.2 °C -10.2 °C 1017.5 hPa NW 11.3 km/h 35.4 km/h 63% 0 mm
08:09 -4.2 °C -10 °C 1017.8 hPa NW 9.7 km/h 35.4 km/h 64% 0 mm
08:14 -4.2 °C -9.9 °C 1017.8 hPa NNW 9.7 km/h 17.7 km/h 64% 0 mm
08:19 -4 °C -10 °C 1017.8 hPa NW 16.1 km/h 32.2 km/h 63% 0 mm
08:24 -3.7 °C -9.7 °C 1017.8 hPa NNW 4.8 km/h 32.2 km/h 63% 0 mm
08:39 -3.4 °C -9.7 °C 1017.8 hPa NW 11.3 km/h 27.4 km/h 62% 0 mm
08:44 -3.6 °C -10 °C 1017.8 hPa WNW 14.5 km/h 27.4 km/h 61% 0 mm
08:54 -3.3 °C -9.6 °C 1017.8 hPa NW 12.9 km/h 29 km/h 62% 0 mm
08:59 -3.3 °C -9.5 °C 1017.8 hPa NW 4.8 km/h 29 km/h 62% 0 mm
09:04 -3.1 °C -9.4 °C 1017.8 hPa NNW 11.3 km/h 27.4 km/h 62% 0 mm
09:09 -3.1 °C -9.4 °C 1017.8 hPa NW 11.3 km/h 27.4 km/h 62% 0 mm
09:14 -2.8 °C -8.9 °C 1017.8 hPa NNW 4.8 km/h 19.3 km/h 63% 0 mm
09:19 -2.8 °C -9.1 °C 1018.2 hPa NW 8 km/h 22.5 km/h 62% 0 mm
09:24 -2.5 °C -8.4 °C 1018.2 hPa NNW 1.6 km/h 22.5 km/h 64% 0 mm
09:29 -2.3 °C -8.6 °C 1018.2 hPa NNW 6.4 km/h 24.1 km/h 62% 0 mm
09:34 -2.4 °C -8.5 °C 1018.2 hPa NNW 8 km/h 24.1 km/h 63% 0 mm
09:39 -2.4 °C -9.2 °C 1018.2 hPa NW 9.7 km/h 19.3 km/h 60% 0 mm
09:49 -2.5 °C -8.6 °C 1018.2 hPa NNW 6.4 km/h 25.7 km/h 63% 0 mm
09:54 -2.4 °C -8.5 °C 1018.5 hPa NNW 6.4 km/h 25.7 km/h 63% 0 mm
09:59 -2.2 °C -8.4 °C 1018.5 hPa NNW 9.7 km/h 19.3 km/h 62% 0 mm
10:04 -2.2 °C -8.3 °C 1018.5 hPa NNW 3.2 km/h 19.3 km/h 63% 0 mm
10:09 -1.8 °C -7.7 °C 1018.5 hPa NNW 4.8 km/h 19.3 km/h 64% 0 mm
10:14 -1.6 °C -7.9 °C 1018.5 hPa NW 6.4 km/h 14.5 km/h 62% 0 mm
10:19 -1.8 °C -8.3 °C 1018.8 hPa NW 6.4 km/h 17.7 km/h 61% 0 mm
10:24 -1.6 °C -7.3 °C 1018.8 hPa North 3.2 km/h 17.7 km/h 65% 0 mm
10:29 -1.7 °C -8.2 °C 1018.8 hPa NNW 11.3 km/h 19.3 km/h 61% 0 mm
10:34 -1.8 °C -7.9 °C 1018.8 hPa NW 6.4 km/h 19.3 km/h 63% 0 mm
10:44 -1.6 °C -8.4 °C 1018.8 hPa NNW 8 km/h 24.1 km/h 60% 0.3 mm
10:49 -1.4 °C -7.9 °C 1018.8 hPa NNW 6.4 km/h 19.3 km/h 61% 0.3 mm
10:54 -1.1 °C -7.4 °C 1018.8 hPa NNW 4.8 km/h 14.5 km/h 62% 0.3 mm
11:04 -0.9 °C -7.9 °C 1018.8 hPa NNW 3.2 km/h 17.7 km/h 59% 0.3 mm
11:14 -0.8 °C -7.4 °C 1018.8 hPa NNW 6.4 km/h 14.5 km/h 61% 0.3 mm
11:19 -0.6 °C -7.2 °C 1018.8 hPa NNW 3.2 km/h 14.5 km/h 61% 0.3 mm
11:24 -0.5 °C -7.6 °C 1018.8 hPa NW 4.8 km/h 14.5 km/h 59% 0.3 mm
11:29 -0.4 °C -6.4 °C 1018.8 hPa WNW 4.8 km/h 14.5 km/h 64% 0.3 mm
11:34 -0.3 °C -6.5 °C 1018.8 hPa NNW 8 km/h 14.5 km/h 63% 0.3 mm
11:39 -0.4 °C -7 °C 1018.5 hPa WNW 12.9 km/h 19.3 km/h 61% 0.3 mm
11:49 0.1 °C -6.8 °C 1018.5 hPa NNW 4.8 km/h 16.1 km/h 60% 0.5 mm
11:54 0.1 °C -7.2 °C 1018.5 hPa NW 8 km/h 17.7 km/h 58% 0.5 mm
11:59 0.3 °C -7.2 °C 1018.5 hPa NW 8 km/h 19.3 km/h 57% 0.5 mm
12:04 0.2 °C -6.8 °C 1018.5 hPa WNW 11.3 km/h 19.3 km/h 59% 0.5 mm
12:09 0.3 °C -6.1 °C 1018.5 hPa Calm   17.7 km/h 62% 0.5 mm
12:14 0.4 °C -7.2 °C 1018.5 hPa NW 6.4 km/h 20.9 km/h 57% 0.5 mm
12:19 0.6 °C -6.8 °C 1018.5 hPa NNW 6.4 km/h 20.9 km/h 58% 0.5 mm
12:29 1.1 °C -6.7 °C 1018.5 hPa NNW 9.7 km/h 16.1 km/h 56% 0.5 mm
12:34 1.3 °C -5.2 °C 1018.2 hPa NW 6.4 km/h 16.1 km/h 62% 0.5 mm
12:39 1.3 °C -5.4 °C 1018.2 hPa NNW 4.8 km/h 14.5 km/h 61% 0.5 mm
12:44 1.4 °C -6.2 °C 1018.2 hPa North 4.8 km/h 14.5 km/h 57% 0.5 mm
12:54 1.9 °C -6.2 °C 1018.2 hPa North 6.4 km/h 12.9 km/h 55% 0.5 mm
12:59 2.3 °C -5.6 °C 1018.2 hPa NNW 4.8 km/h 11.3 km/h 56% 0.5 mm
13:04 2.2 °C -6.2 °C 1018.2 hPa NNW 6.4 km/h 19.3 km/h 54% 0.5 mm
13:09 1.8 °C -7 °C 1017.8 hPa NW 11.3 km/h 24.1 km/h 52% 0.5 mm
13:14 1.7 °C -7.1 °C 1017.8 hPa NW 9.7 km/h 24.1 km/h 52% 0.5 mm
13:19 1.9 °C -6.2 °C 1017.8 hPa NNE 4.8 km/h 14.5 km/h 55% 0.5 mm
13:24 1.8 °C -6.7 °C 1017.8 hPa NW 9.7 km/h 16.1 km/h 53% 0.5 mm
13:29 2.1 °C -7.1 °C 1017.8 hPa North 8 km/h 19.3 km/h 51% 0.5 mm
13:39 2.2 °C -7.1 °C 1017.5 hPa NW 12.9 km/h 25.7 km/h 50% 0.5 mm
13:44 1.9 °C -7.7 °C 1017.5 hPa NW 12.9 km/h 25.7 km/h 49% 0.5 mm
13:49 1.8 °C -6.7 °C 1017.5 hPa NW 8 km/h 25.7 km/h 53% 0.5 mm
13:54 2.3 °C -5.8 °C 1017.2 hPa NW 12.9 km/h 27.4 km/h 55% 0.5 mm
13:59 2.4 °C -7.2 °C 1017.2 hPa NW 8 km/h 27.4 km/h 49% 0.5 mm
14:04 2.8 °C -6.6 °C 1016.8 hPa NNW 4.8 km/h 17.7 km/h 50% 0.5 mm
14:09 3.2 °C -7.1 °C 1016.8 hPa North 4.8 km/h 16.1 km/h 47% 0.5 mm
14:15 3.3 °C -6.9 °C 1016.5 hPa NNW 8 km/h 20.9 km/h 47% 0.5 mm
14:24 3.2 °C -7.6 °C 1016.5 hPa NNE 9.7 km/h 20.9 km/h 45% 0.5 mm
14:29 3.2 °C -7 °C 1016.5 hPa NNE 6.4 km/h 20.9 km/h 47% 0.5 mm
14:34 3.2 °C -7.9 °C 1016.5 hPa NW 8 km/h 14.5 km/h 44% 0.5 mm
14:39 3 °C -7.2 °C 1016.5 hPa NNW 6.4 km/h 14.5 km/h 47% 0.5 mm
14:44 3.3 °C -6.4 °C 1016.1 hPa North 3.2 km/h 14.5 km/h 49% 0.5 mm
14:49 3.7 °C -7.1 °C 1016.1 hPa NNW 4.8 km/h 14.5 km/h 45% 0.5 mm
14:59 3.7 °C -7.1 °C 1016.1 hPa North 1.6 km/h 12.9 km/h 45% 0.5 mm
15:04 3.8 °C -7.4 °C 1016.1 hPa NW 8 km/h 14.5 km/h 44% 0.5 mm
15:09 3.7 °C -8.1 °C 1016.1 hPa WNW 8 km/h 14.5 km/h 42% 0.5 mm
15:14 3.7 °C -8.1 °C 1016.1 hPa NW 8 km/h 14.5 km/h 42% 0.5 mm
15:19 3.7 °C -7.8 °C 1016.1 hPa NW 8 km/h 14.5 km/h 43% 0.5 mm
15:24 3.8 °C -7.3 °C 1016.1 hPa NW 4.8 km/h 14.5 km/h 44% 0.5 mm
15:29 4 °C -7.8 °C 1016.1 hPa NNW 8 km/h 14.5 km/h 42% 0.5 mm
15:34 3.7 °C -8 °C 1016.1 hPa NNE 4.8 km/h 14.5 km/h 42% 0.5 mm
15:39 3.5 °C -8.5 °C 1016.1 hPa NNW 8 km/h 12.9 km/h 41% 0.5 mm
15:44 3.6 °C -8.8 °C 1016.1 hPa NW 9.7 km/h 16.1 km/h 40% 0.5 mm
15:49 3.6 °C -8.5 °C 1015.8 hPa NNW 1.6 km/h 16.1 km/h 41% 0.5 mm
15:54 3.7 °C -7.4 °C 1015.8 hPa North 4.8 km/h 16.1 km/h 44% 0.5 mm
16:04 4 °C -8.1 °C 1015.8 hPa NNE 3.2 km/h 16.1 km/h 41% 0.5 mm
16:09 4 °C -8.1 °C 1015.8 hPa North 3.2 km/h 17.7 km/h 41% 0.5 mm
16:14 4.4 °C -7.1 °C 1015.8 hPa North 4.8 km/h 17.7 km/h 43% 0.5 mm
16:19 4.3 °C -8.4 °C 1015.8 hPa NNW 6.4 km/h 22.5 km/h 39% 0.5 mm
16:24 4 °C -8.1 °C 1015.8 hPa North 4.8 km/h 22.5 km/h 41% 0.5 mm
16:29 3.8 °C -8.3 °C 1016.1 hPa NNW 4.8 km/h 12.9 km/h 41% 0.5 mm
16:34 3.4 °C -8.3 °C 1016.1 hPa North 4.8 km/h 12.9 km/h 42% 0.5 mm
16:39 3.3 °C -7.8 °C 1016.1 hPa Calm   9.7 km/h 44% 0.5 mm
16:44 3.1 °C -8.3 °C 1016.1 hPa North 1.6 km/h 14.5 km/h 43% 0.5 mm
16:54 2.9 °C -7.8 °C 1016.1 hPa North 3.2 km/h 14.5 km/h 45% 0.5 mm
16:59 2.9 °C -8.4 °C 1016.1 hPa NNW 4.8 km/h 14.5 km/h 43% 0.5 mm
17:04 2.8 °C -8.9 °C 1016.1 hPa NNW 3.2 km/h 9.7 km/h 42% 0.5 mm
17:09 2.6 °C -8.4 °C 1016.1 hPa NNW 3.2 km/h 9.7 km/h 44% 0.5 mm
17:14 2.7 °C -8.4 °C 1016.1 hPa North 1.6 km/h 9.7 km/h 44% 0.5 mm
17:19 2.7 °C -8.1 °C 1016.1 hPa NNE 3.2 km/h 11.3 km/h 45% 0.5 mm
17:24 2.6 °C -8.5 °C 1016.1 hPa NNW 3.2 km/h 11.3 km/h 44% 0.5 mm
17:29 2.5 °C -7.9 °C 1016.1 hPa North 1.6 km/h 9.7 km/h 46% 0.5 mm
17:34 2.5 °C -7.9 °C 1016.1 hPa NNE 1.6 km/h 9.7 km/h 46% 0.5 mm
17:39 2.4 °C -8 °C 1016.1 hPa NNW 3.2 km/h 8 km/h 46% 0.5 mm
17:44 2.4 °C -8 °C 1015.8 hPa Calm   8 km/h 46% 0.5 mm
17:50 2.4 °C -7.5 °C 1016.1 hPa Calm   3.2 km/h 48% 0.5 mm
17:59 2.2 °C -7.7 °C 1015.8 hPa Calm   6.4 km/h 48% 0.5 mm
18:04 2.2 °C -7.7 °C 1016.1 hPa Calm   4.8 km/h 48% 0.5 mm
18:09 2.1 °C -7.6 °C 1015.8 hPa Calm   4.8 km/h 49% 0.5 mm
18:14 2 °C -7.6 °C 1015.8 hPa Calm   3.2 km/h 49% 0.5 mm
18:19 1.8 °C -8 °C 1015.8 hPa NE 1.6 km/h 8 km/h 48% 0.5 mm
18:24 1.7 °C -7.9 °C 1016.1 hPa Calm   8 km/h 49% 0.5 mm
18:29 1.5 °C -7.8 °C 1016.1 hPa NE 1.6 km/h 11.3 km/h 50% 0.5 mm
18:34 1.3 °C -7.9 °C 1015.8 hPa NNE 3.2 km/h 11.3 km/h 50% 0.5 mm
18:39 1.3 °C -8 °C 1015.8 hPa ENE 1.6 km/h 8 km/h 50% 0.5 mm
18:49 1 °C -8 °C 1016.1 hPa Calm   6.4 km/h 51% 0.5 mm
18:54 0.9 °C -8.1 °C 1016.1 hPa Calm   6.4 km/h 51% 0.5 mm
18:59 0.7 °C -8 °C 1016.1 hPa Calm   3.2 km/h 52% 0.5 mm
19:04 0.6 °C -8.4 °C 1016.1 hPa Calm   4.8 km/h 51% 0.5 mm
19:09 0.4 °C -7.6 °C 1016.1 hPa Calm   4.8 km/h 55% 0.5 mm
19:14 0.3 °C -6.8 °C 1016.1 hPa Calm   1.6 km/h 59% 0.5 mm
19:19 0.1 °C -7.4 °C 1016.1 hPa Calm   1.6 km/h 57% 0.5 mm
19:24 -0.2 °C -7.4 °C 1016.1 hPa Calm     58% 0.5 mm
19:29 -0.4 °C -7.2 °C 1016.1 hPa Calm     60% 0.5 mm
19:34 -0.5 °C -7.3 °C 1016.5 hPa Calm     60% 0.5 mm
19:39 -0.7 °C -7.4 °C 1016.5 hPa Calm     60% 0.5 mm
19:45 -0.8 °C -7.6 °C 1016.5 hPa Calm     60% 0.5 mm
19:54 -0.8 °C -7 °C 1016.5 hPa Calm     63% 0.5 mm
19:59 -0.9 °C -7.3 °C 1016.5 hPa Calm     62% 0.5 mm
20:04 -0.9 °C -7.1 °C 1016.1 hPa Calm     63% 0.5 mm
20:09 -0.9 °C -7.3 °C 1016.5 hPa Calm     62% 0.5 mm
20:14 -0.9 °C -7.5 °C 1016.5 hPa Calm   3.2 km/h 61% 0.5 mm
20:19 -0.8 °C -7.4 °C 1016.5 hPa Calm   4.8 km/h 61% 0.5 mm
20:24 -0.8 °C -7.2 °C 1016.5 hPa Calm   4.8 km/h 62% 0.5 mm
20:29 -0.8 °C -6.9 °C 1016.5 hPa Calm   4.8 km/h 63% 0.5 mm
20:34 -0.8 °C -7.6 °C 1016.5 hPa ENE 1.6 km/h 8 km/h 60% 0.5 mm
20:39 -0.7 °C -7.3 °C 1016.5 hPa Calm   8 km/h 61% 0.5 mm
20:44 -0.7 °C -7.9 °C 1016.5 hPa Calm   3.2 km/h 58% 0.5 mm
20:49 -0.7 °C -7.7 °C 1016.5 hPa Calm     59% 0.5 mm
20:54 -0.8 °C -7.8 °C 1016.5 hPa Calm   1.6 km/h 59% 0.5 mm
20:59 -0.9 °C -7.3 °C 1016.5 hPa Calm   1.6 km/h 62% 0.5 mm
21:04 -0.9 °C -7.9 °C 1016.5 hPa Calm     59% 0.5 mm
21:14 -1.1 °C -7.6 °C 1016.5 hPa Calm   1.6 km/h 61% 0.5 mm
21:19 -1.1 °C -8.1 °C 1016.5 hPa Calm   1.6 km/h 59% 0.5 mm
21:24 -1.2 °C -7.7 °C 1016.5 hPa Calm     61% 0.5 mm
21:29 -1.2 °C -7.7 °C 1016.5 hPa Calm   4.8 km/h 61% 0.5 mm
21:34 -1.2 °C -7.5 °C 1016.5 hPa Calm   4.8 km/h 62% 0.5 mm
21:39 -1.1 °C -7.4 °C 1016.5 hPa Calm   3.2 km/h 62% 0.5 mm
21:44 -1.1 °C -7.4 °C 1016.5 hPa Calm     62% 0.5 mm
21:54 -1.1 °C -7.8 °C 1016.1 hPa Calm   3.2 km/h 60% 0.5 mm
21:59 -1.1 °C -7.8 °C 1016.1 hPa Calm     60% 0.5 mm
22:04 -1.1 °C -7.4 °C 1016.1 hPa Calm     62% 0.5 mm
22:09 -1.2 °C -7.5 °C 1016.1 hPa Calm   4.8 km/h 62% 0.5 mm
22:14 -1.2 °C -7.7 °C 1016.1 hPa Calm   4.8 km/h 61% 0.5 mm
22:19 -1.3 °C -7.6 °C 1016.1 hPa Calm   1.6 km/h 62% 0.5 mm
22:24 -1.4 °C -7.3 °C 1016.1 hPa Calm   1.6 km/h 64% 0.5 mm
22:29 -1.5 °C -7.8 °C 1016.1 hPa Calm     62% 0.5 mm
22:34 -1.6 °C -7.5 °C 1016.1 hPa Calm     64% 0.5 mm
22:39 -1.6 °C -7.6 °C 1016.1 hPa Calm     64% 0.5 mm
22:44 -1.6 °C -7.7 °C 1015.8 hPa Calm   1.6 km/h 63% 0.5 mm
22:49 -1.7 °C -7.8 °C 1016.1 hPa Calm   1.6 km/h 63% 0.5 mm
22:54 -1.7 °C -7 °C 1016.1 hPa Calm     67% 0.5 mm
23:04 -1.9 °C -7.4 °C 1016.1 hPa Calm   1.6 km/h 66% 0.5 mm
23:14 -2 °C -7.7 °C 1016.1 hPa Calm     65% 0.5 mm
23:19 -2.1 °C -7.8 °C 1016.5 hPa Calm     65% 0.5 mm
23:29 -2.3 °C -7.8 °C 1016.5 hPa Calm     66% 0.5 mm
23:39 -2.2 °C -7.5 °C 1016.5 hPa Calm     67% 0.5 mm
23:44 -2.2 °C -7.5 °C 1016.5 hPa Calm     67% 0.5 mm
23:49 -2.3 °C -7.8 °C 1016.8 hPa Calm     66% 0.5 mm
23:59 -2.3 °C -7.4 °C 1016.8 hPa Calm     68% 0.5 mm
Westford Weather
Compliments of Weather Underground

 
 
Current Radar Loop:

Copyright © WestfordWeather.net 2007-2014. All rights reserved.